createdAt,value
2018-05-08T00:00:24.159Z,13.00
2018-05-08T00:02:53.141Z,13.00
2018-05-08T00:05:21.994Z,13.00
2018-05-08T00:07:50.839Z,12.90
2018-05-08T00:10:19.837Z,12.80
2018-05-08T00:12:48.933Z,12.80
2018-05-08T00:15:17.810Z,12.70
2018-05-08T00:17:47.437Z,12.60
2018-05-08T00:20:17.593Z,12.60
2018-05-08T00:22:47.243Z,12.50
2018-05-08T00:25:16.114Z,12.50
2018-05-08T00:27:45.014Z,12.40
2018-05-08T00:30:13.881Z,12.40
2018-05-08T00:32:43.470Z,12.30
2018-05-08T00:35:12.314Z,12.30
2018-05-08T00:37:41.186Z,12.30
2018-05-08T00:40:10.836Z,12.20
2018-05-08T00:42:39.666Z,12.20
2018-05-08T00:45:08.985Z,12.10
2018-05-08T00:47:38.225Z,12.10
2018-05-08T00:50:07.074Z,12.10
2018-05-08T00:52:35.961Z,12.10
2018-05-08T00:55:06.875Z,12.10
2018-05-08T00:57:35.842Z,12.00
2018-05-08T01:00:04.822Z,12.00
2018-05-08T01:02:34.491Z,11.90
2018-05-08T01:05:03.554Z,11.90
2018-05-08T01:07:32.532Z,11.90
2018-05-08T01:10:01.905Z,11.80
2018-05-08T01:12:30.862Z,11.80
2018-05-08T01:14:59.806Z,11.80
2018-05-08T01:17:28.825Z,11.80
2018-05-08T01:19:57.807Z,11.70
2018-05-08T01:22:26.725Z,11.70
2018-05-08T01:24:55.696Z,11.60
2018-05-08T01:27:24.660Z,11.50
2018-05-08T01:29:53.665Z,11.50
2018-05-08T01:32:22.606Z,11.40
2018-05-08T01:34:52.258Z,11.30
2018-05-08T01:37:21.194Z,11.30
2018-05-08T01:39:50.969Z,11.30
2018-05-08T01:42:20.031Z,11.20
2018-05-08T01:44:49.618Z,11.10
2018-05-08T01:47:18.535Z,11.10
2018-05-08T01:49:48.928Z,11.00
2018-05-08T01:52:17.917Z,11.00
2018-05-08T01:54:47.133Z,11.00
2018-05-08T01:57:16.105Z,10.90
2018-05-08T01:59:46.543Z,10.80
2018-05-08T02:02:15.563Z,10.80
2018-05-08T02:04:44.892Z,10.70
2018-05-08T02:07:14.686Z,10.70
2018-05-08T02:09:43.644Z,10.60
2018-05-08T02:12:13.061Z,10.70
2018-05-08T02:14:42.394Z,10.60
2018-05-08T02:17:11.926Z,10.60
2018-05-08T02:19:41.846Z,10.50
2018-05-08T02:22:11.585Z,10.50
2018-05-08T02:24:40.547Z,10.50
2018-05-08T02:27:10.345Z,10.50
2018-05-08T02:29:39.246Z,10.40
2018-05-08T02:32:08.867Z,10.40
2018-05-08T02:34:38.035Z,10.40
2018-05-08T02:37:06.945Z,10.30
2018-05-08T02:39:35.868Z,10.30
2018-05-08T02:42:05.615Z,10.20
2018-05-08T02:44:34.583Z,10.20
2018-05-08T02:47:03.699Z,10.20
2018-05-08T02:49:32.530Z,10.20
2018-05-08T02:52:01.434Z,10.20
2018-05-08T02:54:30.635Z,10.20
2018-05-08T02:56:59.551Z,10.20
2018-05-08T02:59:28.410Z,10.20
2018-05-08T03:01:57.239Z,10.20
2018-05-08T03:04:26.082Z,10.20
2018-05-08T03:06:54.961Z,10.20
2018-05-08T03:09:23.826Z,10.20
2018-05-08T03:11:52.677Z,10.20
2018-05-08T03:14:21.996Z,10.20
2018-05-08T03:16:50.867Z,10.10
2018-05-08T03:19:19.753Z,10.10
2018-05-08T03:21:48.682Z,10.10
2018-05-08T03:24:18.428Z,10.10
2018-05-08T03:26:47.328Z,10.00
2018-05-08T03:29:16.613Z,10.10
2018-05-08T03:31:45.500Z,10.00
2018-05-08T03:34:14.371Z,10.00
2018-05-08T03:36:43.256Z,10.00
2018-05-08T03:39:12.090Z,9.90
2018-05-08T03:41:40.914Z,9.90
2018-05-08T03:44:10.541Z,9.90
2018-05-08T03:46:39.406Z,9.80
2018-05-08T03:49:09.002Z,9.90
2018-05-08T03:51:37.875Z,9.90
2018-05-08T03:54:06.797Z,9.90
2018-05-08T03:56:35.644Z,10.00
2018-05-08T03:59:04.576Z,10.00
2018-05-08T04:01:45.138Z,10.00
2018-05-08T04:04:25.674Z,10.00
2018-05-08T04:07:06.383Z,10.10
2018-05-08T04:09:35.257Z,10.10
2018-05-08T04:12:04.451Z,10.10
2018-05-08T04:14:33.299Z,10.10
2018-05-08T04:17:03.238Z,10.20
2018-05-08T04:19:32.067Z,10.20
2018-05-08T04:22:01.197Z,10.20
2018-05-08T04:24:30.906Z,10.30
2018-05-08T04:27:00.538Z,10.30
2018-05-08T04:29:29.463Z,10.30
2018-05-08T04:31:58.404Z,10.30
2018-05-08T04:34:28.083Z,10.40
2018-05-08T04:36:57.943Z,10.30
2018-05-08T04:39:27.685Z,10.30
2018-05-08T04:41:56.789Z,10.30
2018-05-08T04:44:26.486Z,10.30
2018-05-08T04:46:55.489Z,10.30
2018-05-08T04:49:25.703Z,10.40
2018-05-08T04:51:55.343Z,10.40
2018-05-08T04:54:24.202Z,10.40
2018-05-08T04:56:53.821Z,10.50
2018-05-08T04:59:23.438Z,10.60
2018-05-08T05:01:52.295Z,10.50
2018-05-08T05:04:21.152Z,10.60
2018-05-08T05:06:50.084Z,10.70
2018-05-08T05:09:19.674Z,10.80
2018-05-08T05:11:48.494Z,10.80
2018-05-08T05:14:17.378Z,10.80
2018-05-08T05:16:46.222Z,10.90
2018-05-08T05:19:15.069Z,11.00
2018-05-08T05:21:43.987Z,11.00
2018-05-08T05:24:13.638Z,11.10
2018-05-08T05:26:42.478Z,11.10
2018-05-08T05:29:11.486Z,11.20
2018-05-08T05:31:40.701Z,11.30
2018-05-08T05:34:10.435Z,11.40
2018-05-08T05:36:39.440Z,11.40
2018-05-08T05:39:08.286Z,11.50
2018-05-08T05:41:37.102Z,11.60
2018-05-08T05:44:06.355Z,11.70
2018-05-08T05:46:35.177Z,11.80
2018-05-08T05:49:04.027Z,11.90
2018-05-08T05:51:32.872Z,12.00
2018-05-08T05:54:02.106Z,12.10
2018-05-08T05:56:30.922Z,12.20
2018-05-08T05:58:59.839Z,12.40
2018-05-08T06:01:28.667Z,12.50
2018-05-08T06:03:57.561Z,12.50
2018-05-08T06:06:27.240Z,12.70
2018-05-08T06:08:56.078Z,12.70
2018-05-08T06:11:25.290Z,12.90
2018-05-08T06:13:54.601Z,13.00
2018-05-08T06:16:23.443Z,13.10
2018-05-08T06:18:52.302Z,13.20
2018-05-08T06:21:21.197Z,13.30
2018-05-08T06:23:50.054Z,13.50
2018-05-08T06:26:19.640Z,13.80
2018-05-08T06:28:48.481Z,13.70
2018-05-08T06:31:17.299Z,13.90
2018-05-08T06:33:46.149Z,14.00
2018-05-08T06:36:15.258Z,14.10
2018-05-08T06:38:45.238Z,14.40
2018-05-08T06:41:14.485Z,14.40
2018-05-08T06:43:43.358Z,14.60
2018-05-08T06:46:13.003Z,14.90
2018-05-08T06:48:41.874Z,14.90
2018-05-08T06:51:11.534Z,15.20
2018-05-08T06:53:40.764Z,15.20
2018-05-08T06:56:09.610Z,15.40
2018-05-08T06:58:38.441Z,15.50
2018-05-08T07:01:07.344Z,15.70
2018-05-08T07:03:36.352Z,15.80
2018-05-08T07:06:05.238Z,16.00
2018-05-08T07:08:34.420Z,16.20
2018-05-08T07:11:03.692Z,16.40
2018-05-08T07:13:32.556Z,16.60
2018-05-08T07:16:02.562Z,16.90
2018-05-08T07:18:31.343Z,16.90
2018-05-08T07:21:00.262Z,17.10
2018-05-08T07:23:29.900Z,17.40
2018-05-08T07:25:58.726Z,17.40
2018-05-08T07:28:27.560Z,17.60
2018-05-08T07:30:56.455Z,17.80
2018-05-08T07:33:25.353Z,17.90
2018-05-08T07:35:54.949Z,18.20
2018-05-08T07:38:23.845Z,18.20
2018-05-08T07:40:53.875Z,18.40
2018-05-08T07:43:22.733Z,18.40
2018-05-08T07:45:51.826Z,18.50
2018-05-08T07:48:20.654Z,18.60
2018-05-08T07:50:49.493Z,18.70
2018-05-08T07:53:18.558Z,18.80
2018-05-08T07:55:48.152Z,19.10
2018-05-08T07:58:17.038Z,19.00
2018-05-08T08:00:45.995Z,19.20
2018-05-08T08:03:14.861Z,19.40
2018-05-08T08:05:44.498Z,19.70
2018-05-08T08:08:13.530Z,19.60
2018-05-08T08:10:43.063Z,20.00
2018-05-08T08:13:11.903Z,20.00
2018-05-08T08:15:40.822Z,20.10
2018-05-08T08:18:09.665Z,20.20
2018-05-08T08:20:39.270Z,20.40
2018-05-08T08:23:08.875Z,20.50
2018-05-08T08:25:38.094Z,20.50
2018-05-08T08:28:07.703Z,20.60
2018-05-08T08:30:37.409Z,20.70
2018-05-08T08:33:07.028Z,20.80
2018-05-08T08:35:35.966Z,20.80
2018-05-08T08:38:04.938Z,20.90
2018-05-08T08:40:33.790Z,21.10
2018-05-08T08:43:03.060Z,21.20
2018-05-08T08:45:31.985Z,21.30
2018-05-08T08:48:00.958Z,21.40
2018-05-08T08:50:29.799Z,21.60
2018-05-08T08:52:59.466Z,21.70
2018-05-08T08:55:28.299Z,21.70
2018-05-08T08:57:57.262Z,21.80
2018-05-08T09:00:27.174Z,22.00
2018-05-08T09:02:55.994Z,22.00
2018-05-08T09:05:25.171Z,22.10
2018-05-08T09:07:54.018Z,22.10
2018-05-08T09:10:23.338Z,22.20
2018-05-08T09:12:52.168Z,22.30
2018-05-08T09:15:21.511Z,22.40
2018-05-08T09:17:51.107Z,22.70
2018-05-08T09:20:20.205Z,22.60
2018-05-08T09:22:49.077Z,22.80
2018-05-08T09:25:18.398Z,22.90
2018-05-08T09:27:47.290Z,23.00
2018-05-08T09:30:16.627Z,23.20
2018-05-08T09:32:46.286Z,23.30
2018-05-08T09:35:15.138Z,23.30
2018-05-08T09:37:44.434Z,23.40
2018-05-08T09:40:13.626Z,23.50
2018-05-08T09:42:42.470Z,23.50
2018-05-08T09:45:11.358Z,23.60
2018-05-08T09:47:40.188Z,23.80
2018-05-08T09:50:09.010Z,23.90
2018-05-08T09:52:38.614Z,24.00
2018-05-08T09:55:07.450Z,23.90
2018-05-08T09:57:36.343Z,24.10
2018-05-08T10:00:05.267Z,24.10
2018-05-08T10:02:34.438Z,24.10
2018-05-08T10:05:03.275Z,24.20
2018-05-08T10:07:32.387Z,24.20
2018-05-08T10:10:01.589Z,24.20
2018-05-08T10:12:30.564Z,24.20
2018-05-08T10:14:59.904Z,24.20
2018-05-08T10:17:29.567Z,24.20
2018-05-08T10:19:59.248Z,24.30
2018-05-08T10:22:28.139Z,24.30
2018-05-08T10:24:57.328Z,24.40
2018-05-08T10:27:26.971Z,24.60
2018-05-08T10:29:55.811Z,24.60
2018-05-08T10:32:24.690Z,24.70
2018-05-08T10:34:53.632Z,24.70
2018-05-08T10:37:23.219Z,24.80
2018-05-08T10:39:52.137Z,24.80
2018-05-08T10:42:21.814Z,25.00
2018-05-08T10:44:50.669Z,24.90
2018-05-08T10:47:19.864Z,25.10
2018-05-08T10:49:48.743Z,25.20
2018-05-08T10:52:18.355Z,25.50
2018-05-08T10:54:47.973Z,25.50
2018-05-08T10:57:18.551Z,25.60
2018-05-08T10:59:47.983Z,25.60
2018-05-08T11:02:16.870Z,25.70
2018-05-08T11:04:45.710Z,25.80
2018-05-08T11:07:14.562Z,25.90
2018-05-08T11:09:43.407Z,25.90
2018-05-08T11:12:12.294Z,25.90
2018-05-08T11:14:41.147Z,25.80
2018-05-08T11:17:10.226Z,25.80
2018-05-08T11:19:39.440Z,25.90
2018-05-08T11:22:08.290Z,26.10
2018-05-08T11:24:37.137Z,26.20
2018-05-08T11:27:06.372Z,26.30
2018-05-08T11:29:35.213Z,26.30
2018-05-08T11:32:04.050Z,26.20
2018-05-08T11:34:33.698Z,26.20
2018-05-08T11:37:02.525Z,26.30
2018-05-08T11:39:31.350Z,26.20
2018-05-08T11:42:01.037Z,26.40
2018-05-08T11:44:29.858Z,26.40
2018-05-08T11:46:59.594Z,26.60
2018-05-08T11:49:29.631Z,26.70
2018-05-08T11:51:58.455Z,26.70
2018-05-08T11:54:27.282Z,26.80
2018-05-08T11:56:56.946Z,26.90
2018-05-08T11:59:25.846Z,26.90
2018-05-08T12:01:54.679Z,26.80
2018-05-08T12:04:23.906Z,26.90
2018-05-08T12:06:52.746Z,27.00
2018-05-08T12:09:22.594Z,27.10
2018-05-08T12:11:52.208Z,27.30
2018-05-08T12:14:21.434Z,27.30
2018-05-08T12:16:50.297Z,27.40
2018-05-08T12:19:19.938Z,27.60
2018-05-08T12:21:48.812Z,27.60
2018-05-08T12:24:18.208Z,27.60
2018-05-08T12:26:47.597Z,27.70
2018-05-08T12:29:16.747Z,27.80
2018-05-08T12:31:45.590Z,28.00
2018-05-08T12:34:14.898Z,28.00
2018-05-08T12:36:44.150Z,28.00
2018-05-08T12:39:13.047Z,28.10
2018-05-08T12:41:41.883Z,28.00
2018-05-08T12:44:11.177Z,28.10
2018-05-08T12:46:41.122Z,28.00
2018-05-08T12:49:09.962Z,27.90
2018-05-08T12:51:38.829Z,28.00
2018-05-08T12:54:08.563Z,27.90
2018-05-08T12:56:37.448Z,27.90
2018-05-08T12:59:06.480Z,27.90
2018-05-08T13:01:35.646Z,27.90
2018-05-08T13:04:04.886Z,28.10
2018-05-08T13:06:33.769Z,28.10
2018-05-08T13:09:02.627Z,28.20
2018-05-08T13:11:32.254Z,28.50
2018-05-08T13:14:01.208Z,28.50
2018-05-08T13:16:30.142Z,28.70
2018-05-08T13:18:58.993Z,28.90
2018-05-08T13:21:27.849Z,28.90
2018-05-08T13:23:56.706Z,29.00
2018-05-08T13:26:26.294Z,29.10
2018-05-08T13:28:56.208Z,29.00
2018-05-08T13:31:25.304Z,28.90
2018-05-08T13:33:54.214Z,29.00
2018-05-08T13:36:23.123Z,29.10
2018-05-08T13:38:52.031Z,29.10
2018-05-08T13:41:21.645Z,28.90
2018-05-08T13:43:50.767Z,28.90
2018-05-08T13:46:19.632Z,29.10
2018-05-08T13:48:49.250Z,29.60
2018-05-08T13:51:18.858Z,30.10
2018-05-08T13:53:48.494Z,30.40
2018-05-08T13:56:17.367Z,30.40
2018-05-08T13:58:46.626Z,30.30
2018-05-08T14:01:16.040Z,30.30
2018-05-08T14:03:45.740Z,30.30
2018-05-08T14:06:14.697Z,30.40
2018-05-08T14:08:43.635Z,30.70
2018-05-08T14:11:12.654Z,30.70
2018-05-08T14:13:41.912Z,30.80
2018-05-08T14:16:10.766Z,30.80
2018-05-08T14:18:39.849Z,31.00
2018-05-08T14:21:09.084Z,31.30
2018-05-08T14:23:38.742Z,31.50
2018-05-08T14:26:07.856Z,31.50
2018-05-08T14:28:37.451Z,31.20
2018-05-08T14:31:06.722Z,31.10
2018-05-08T14:33:36.798Z,31.10
2018-05-08T14:36:05.924Z,31.10
2018-05-08T14:38:35.420Z,31.10
2018-05-08T14:41:04.258Z,31.10
2018-05-08T14:43:33.119Z,31.20
2018-05-08T14:46:02.404Z,31.40
2018-05-08T14:48:31.686Z,31.40
2018-05-08T14:51:00.526Z,31.40
2018-05-08T14:53:29.622Z,31.50
2018-05-08T14:55:58.486Z,31.50
2018-05-08T14:58:27.594Z,31.50
2018-05-08T15:00:56.475Z,31.40
2018-05-08T15:03:26.082Z,31.20
2018-05-08T15:05:54.925Z,31.20
2018-05-08T15:08:24.693Z,31.00
2018-05-08T15:10:53.943Z,31.00
2018-05-08T15:13:22.973Z,30.90
2018-05-08T15:15:51.902Z,30.80
2018-05-08T15:18:20.926Z,30.70
2018-05-08T15:20:50.769Z,30.60
2018-05-08T15:23:22.389Z,30.60
2018-05-08T15:25:52.327Z,30.60
2018-05-08T15:28:21.234Z,30.60
2018-05-08T15:30:50.147Z,30.60
2018-05-08T15:33:19.114Z,30.50
2018-05-08T15:35:48.957Z,30.20
2018-05-08T15:38:18.264Z,30.20
2018-05-08T15:40:47.167Z,30.10
2018-05-08T15:43:16.115Z,30.00
2018-05-08T15:45:45.822Z,30.00
2018-05-08T15:48:15.498Z,30.10
2018-05-08T15:50:44.807Z,30.10
2018-05-08T15:53:14.005Z,30.10
2018-05-08T15:55:43.045Z,30.10
2018-05-08T15:58:12.719Z,30.00
2018-05-08T16:00:41.862Z,30.00
2018-05-08T16:03:11.150Z,29.80
2018-05-08T16:05:40.134Z,29.60
2018-05-08T16:08:09.346Z,29.50
2018-05-08T16:10:38.578Z,29.50
2018-05-08T16:13:07.636Z,29.50
2018-05-08T16:15:38.119Z,29.60
2018-05-08T16:18:08.218Z,29.70
2018-05-08T16:20:37.918Z,29.60
2018-05-08T16:23:07.237Z,29.60
2018-05-08T16:25:37.036Z,29.30
2018-05-08T16:28:05.979Z,29.30
2018-05-08T16:30:34.926Z,29.20
2018-05-08T16:33:04.069Z,29.10
2018-05-08T16:35:33.001Z,28.80
2018-05-08T16:38:02.143Z,28.90
2018-05-08T16:40:31.816Z,28.90
2018-05-08T16:43:00.957Z,28.80
2018-05-08T16:45:30.136Z,28.80
2018-05-08T16:47:59.010Z,28.60
2018-05-08T16:50:28.120Z,28.40
2018-05-08T16:52:57.310Z,28.20
2018-05-08T16:55:26.248Z,28.00
2018-05-08T16:57:58.884Z,27.60
2018-05-08T17:00:29.034Z,27.60
2018-05-08T17:02:58.336Z,27.60
2018-05-08T17:05:27.195Z,27.60
2018-05-08T17:07:56.104Z,27.60
2018-05-08T17:10:25.055Z,27.60
2018-05-08T17:12:53.924Z,27.70
2018-05-08T17:15:22.804Z,27.80
2018-05-08T17:17:51.695Z,28.00
2018-05-08T17:20:20.577Z,28.30
2018-05-08T17:22:49.458Z,28.60
2018-05-08T17:25:18.355Z,28.80
2018-05-08T17:27:47.215Z,29.10
2018-05-08T17:30:16.420Z,29.10
2018-05-08T17:32:45.741Z,29.00
2018-05-08T17:35:14.609Z,28.90
2018-05-08T17:37:43.719Z,28.70
2018-05-08T17:40:13.371Z,28.30
2018-05-08T17:42:42.242Z,28.30
2018-05-08T17:45:11.110Z,28.10
2018-05-08T17:47:41.328Z,27.80
2018-05-08T17:50:11.396Z,27.60
2018-05-08T17:52:40.916Z,27.60
2018-05-08T17:55:10.668Z,27.10
2018-05-08T17:57:39.980Z,27.10
2018-05-08T18:00:09.706Z,26.70
2018-05-08T18:02:39.584Z,26.50
2018-05-08T18:05:08.486Z,26.40
2018-05-08T18:07:37.447Z,26.20
2018-05-08T18:10:06.582Z,26.00
2018-05-08T18:12:35.505Z,25.80
2018-05-08T18:15:05.484Z,25.30
2018-05-08T18:17:34.545Z,25.30
2018-05-08T18:20:03.451Z,25.20
2018-05-08T18:22:33.501Z,25.00
2018-05-08T18:25:02.514Z,24.90
2018-05-08T18:27:31.495Z,24.70
2018-05-08T18:30:00.442Z,24.60
2018-05-08T18:32:30.520Z,24.20
2018-05-08T18:34:59.500Z,24.20
2018-05-08T18:37:29.295Z,24.00
2018-05-08T18:39:58.325Z,23.90
2018-05-08T18:42:28.495Z,23.70
2018-05-08T18:44:57.409Z,23.60
2018-05-08T18:47:26.320Z,23.40
2018-05-08T18:49:55.226Z,23.20
2018-05-08T18:52:24.219Z,23.10
2018-05-08T18:54:53.179Z,22.90
2018-05-08T18:57:22.422Z,22.70
2018-05-08T18:59:51.671Z,22.60
2018-05-08T19:02:21.495Z,22.30
2018-05-08T19:04:51.410Z,22.20
2018-05-08T19:07:20.762Z,22.20
2018-05-08T19:09:49.692Z,22.10
2018-05-08T19:12:18.677Z,21.90
2018-05-08T19:14:47.696Z,21.80
2018-05-08T19:17:16.648Z,21.70
2018-05-08T19:19:51.186Z,21.60
2018-05-08T19:22:20.213Z,21.50
2018-05-08T19:24:49.055Z,21.40
2018-05-08T19:27:17.918Z,21.20
2018-05-08T19:29:53.275Z,20.80
2018-05-08T19:32:22.178Z,20.80
2018-05-08T19:34:56.978Z,20.70
2018-05-08T19:37:32.266Z,20.40
2018-05-08T19:40:01.301Z,20.40
2018-05-08T19:42:32.080Z,20.20
2018-05-08T19:45:01.410Z,20.20
2018-05-08T19:47:30.571Z,20.10
2018-05-08T19:49:59.598Z,20.00
2018-05-08T19:52:28.667Z,19.90
2018-05-08T19:54:57.660Z,19.80
2018-05-08T19:57:26.692Z,19.70
2018-05-08T19:59:55.590Z,19.60
2018-05-08T20:02:24.425Z,19.60
2018-05-08T20:04:54.231Z,19.40
2018-05-08T20:07:23.107Z,19.30
2018-05-08T20:09:52.046Z,19.20
2018-05-08T20:12:22.456Z,19.00
2018-05-08T20:14:52.765Z,19.00
2018-05-08T20:17:21.812Z,18.90
2018-05-08T20:19:51.146Z,18.80
2018-05-08T20:22:20.098Z,18.70
2018-05-08T20:24:49.039Z,18.60
2018-05-08T20:27:17.902Z,18.50
2018-05-08T20:29:47.641Z,18.30
2018-05-08T20:32:16.510Z,18.30
2018-05-08T20:34:45.742Z,18.30
2018-05-08T20:37:14.610Z,18.20
2018-05-08T20:39:44.234Z,18.00
2018-05-08T20:42:13.434Z,18.00
2018-05-08T20:44:42.262Z,17.90
2018-05-08T20:47:12.186Z,17.70
2018-05-08T20:49:41.463Z,17.70
2018-05-08T20:52:10.292Z,17.60
2018-05-08T20:54:39.176Z,17.50
2018-05-08T20:57:08.070Z,17.40
2018-05-08T20:59:36.907Z,17.30
2018-05-08T21:02:06.022Z,17.20
2018-05-08T21:04:35.222Z,17.10
2018-05-08T21:07:04.455Z,17.00
2018-05-08T21:09:33.347Z,17.00
2018-05-08T21:12:02.210Z,16.90
2018-05-08T21:14:31.429Z,16.90
2018-05-08T21:17:00.754Z,16.80
2018-05-08T21:19:29.635Z,16.80
2018-05-08T21:21:58.471Z,16.70
2018-05-08T21:24:28.888Z,16.60
2018-05-08T21:26:57.738Z,16.60
2018-05-08T21:29:32.593Z,16.60
2018-05-08T21:32:01.452Z,16.50
2018-05-08T21:34:31.062Z,16.50
2018-05-08T21:37:00.692Z,16.40
2018-05-08T21:39:29.523Z,16.40
2018-05-08T21:41:58.726Z,16.40
2018-05-08T21:44:28.415Z,16.30
2018-05-08T21:46:57.330Z,16.30
2018-05-08T21:49:27.342Z,16.20
2018-05-08T21:51:56.154Z,16.20
2018-05-08T21:54:25.390Z,16.10
2018-05-08T21:56:55.011Z,16.10
2018-05-08T21:59:24.623Z,16.00
2018-05-08T22:01:54.282Z,16.00
2018-05-08T22:04:23.951Z,16.00
2018-05-08T22:06:53.555Z,15.90
2018-05-08T22:09:23.218Z,15.80
2018-05-08T22:11:52.068Z,15.80
2018-05-08T22:14:21.134Z,15.80
2018-05-08T22:16:49.989Z,15.70
2018-05-08T22:19:18.830Z,15.70
2018-05-08T22:21:47.670Z,15.60
2018-05-08T22:24:16.798Z,15.50
2018-05-08T22:26:45.631Z,15.50
2018-05-08T22:29:15.221Z,15.40
2018-05-08T22:31:44.114Z,15.40
2018-05-08T22:34:12.962Z,15.40
2018-05-08T22:36:42.937Z,15.30
2018-05-08T22:39:12.162Z,15.30
2018-05-08T22:41:41.830Z,15.20
2018-05-08T22:44:10.940Z,15.10
2018-05-08T22:46:41.338Z,15.10
2018-05-08T22:49:10.322Z,15.10
2018-05-08T22:51:39.961Z,15.00
2018-05-08T22:54:09.091Z,15.00
2018-05-08T22:56:37.938Z,14.90
2018-05-08T22:59:06.774Z,14.90
2018-05-08T23:01:35.638Z,14.80
2018-05-08T23:04:04.490Z,14.80
2018-05-08T23:06:34.094Z,14.80
2018-05-08T23:09:03.340Z,14.80
2018-05-08T23:11:32.270Z,14.80
2018-05-08T23:14:01.187Z,14.70
2018-05-08T23:16:30.858Z,14.70
2018-05-08T23:18:59.702Z,14.70
2018-05-08T23:21:29.364Z,14.60
2018-05-08T23:23:58.259Z,14.50
2018-05-08T23:26:27.105Z,14.50
2018-05-08T23:28:56.286Z,14.40
2018-05-08T23:31:25.149Z,14.40
2018-05-08T23:33:54.375Z,14.40
2018-05-08T23:36:23.218Z,14.40
2018-05-08T23:38:52.136Z,14.30
2018-05-08T23:41:21.034Z,14.30
2018-05-08T23:43:49.898Z,14.30
2018-05-08T23:46:18.758Z,14.20
2018-05-08T23:48:47.977Z,14.20
2018-05-08T23:51:17.575Z,14.00
2018-05-08T23:53:46.818Z,14.00
2018-05-08T23:56:15.694Z,14.00
2018-05-08T23:58:44.904Z,13.90
